createdAt,value
2019-03-29T00:03:57.119Z,85.09
2019-03-29T00:06:45.042Z,85.89
2019-03-29T00:11:48.336Z,86.85
2019-03-29T00:14:36.447Z,87.38
2019-03-29T00:17:05.966Z,87.67
2019-03-29T00:19:34.884Z,88.30
2019-03-29T00:22:04.941Z,88.06
2019-03-29T00:24:33.992Z,87.90
2019-03-29T00:27:42.436Z,88.12
2019-03-29T00:33:06.744Z,88.06
2019-03-29T00:38:42.911Z,88.53
2019-03-29T00:41:51.653Z,88.69
2019-03-29T00:45:00.373Z,88.91
2019-03-29T00:47:30.076Z,89.10
2019-03-29T00:53:14.138Z,88.93
2019-03-29T00:56:02.584Z,88.81
2019-03-29T01:04:29.108Z,88.92
2019-03-29T01:06:59.387Z,88.73
2019-03-29T01:10:08.059Z,89.09
2019-03-29T01:15:13.689Z,89.78
2019-03-29T01:18:01.888Z,88.87
2019-03-29T01:21:10.581Z,88.86
2019-03-29T01:23:58.480Z,88.87
2019-03-29T01:26:46.833Z,88.09
2019-03-29T01:29:35.295Z,88.13
2019-03-29T01:32:44.081Z,87.58
2019-03-29T01:35:33.956Z,88.07
2019-03-29T01:38:03.759Z,88.00
2019-03-29T01:43:20.551Z,88.28
2019-03-29T01:48:44.254Z,88.69
2019-03-29T01:54:40.583Z,89.05
2019-03-29T01:57:29.382Z,89.49
2019-03-29T02:02:53.900Z,89.48
2019-03-29T02:08:35.835Z,90.85
2019-03-29T02:11:20.251Z,90.73
2019-03-29T02:14:08.522Z,91.21
2019-03-29T02:17:15.542Z,91.23
2019-03-29T02:19:44.178Z,91.84
2019-03-29T02:22:32.110Z,91.82
2019-03-29T02:25:21.013Z,91.86
2019-03-29T02:28:08.918Z,91.98
2019-03-29T02:30:56.824Z,92.11
2019-03-29T02:33:26.520Z,92.29
2019-03-29T02:39:02.019Z,92.93
2019-03-29T02:41:49.830Z,93.20
2019-03-29T02:44:37.892Z,93.57
2019-03-29T02:47:06.458Z,93.77
2019-03-29T02:52:42.104Z,94.26
2019-03-29T02:55:51.693Z,95.07
2019-03-29T02:58:40.715Z,95.25
2019-03-29T03:01:28.667Z,95.50
2019-03-29T03:03:57.347Z,94.84
2019-03-29T03:06:45.168Z,95.10
2019-03-29T03:09:32.936Z,94.97
2019-03-29T03:12:01.619Z,95.07
2019-03-29T03:14:50.836Z,95.07
2019-03-29T03:17:20.219Z,94.89
2019-03-29T03:19:48.810Z,95.33
2019-03-29T03:22:17.417Z,95.04
2019-03-29T03:25:25.431Z,94.79
2019-03-29T03:30:48.797Z,95.44
2019-03-29T03:33:17.789Z,95.52
2019-03-29T03:35:46.435Z,95.36
2019-03-29T03:38:15.075Z,95.33
2019-03-29T03:40:43.748Z,95.27
2019-03-29T03:43:12.393Z,95.65
2019-03-29T03:45:40.999Z,95.89
2019-03-29T03:48:09.600Z,96.13
2019-03-29T03:51:20.165Z,96.37
2019-03-29T03:53:48.915Z,96.58
2019-03-29T03:56:57.498Z,96.96
2019-03-29T03:59:26.805Z,96.73
2019-03-29T04:01:55.423Z,96.84
2019-03-29T04:07:18.668Z,96.93
2019-03-29T04:09:49.707Z,97.24
2019-03-29T04:12:18.426Z,97.74
2019-03-29T04:15:07.090Z,98.04
2019-03-29T04:17:36.707Z,98.05
2019-03-29T04:20:47.098Z,97.97
2019-03-29T04:23:16.564Z,98.19
2019-03-29T04:25:45.849Z,98.33
2019-03-29T04:34:12.062Z,98.22
2019-03-29T04:37:01.093Z,98.51
2019-03-29T04:42:25.951Z,98.51
2019-03-29T04:44:55.015Z,98.75
2019-03-29T04:50:18.358Z,98.85
2019-03-29T04:52:47.610Z,98.56
2019-03-29T04:55:18.307Z,98.80
2019-03-29T04:57:47.097Z,98.53
2019-03-29T05:00:34.966Z,98.17
2019-03-29T05:03:03.823Z,98.34
2019-03-29T05:05:51.730Z,98.80
2019-03-29T05:08:20.344Z,98.91
2019-03-29T05:11:08.285Z,99.14
2019-03-29T05:13:56.608Z,99.42
2019-03-29T05:16:25.745Z,99.43
2019-03-29T05:19:13.654Z,99.51
2019-03-29T05:21:42.322Z,99.28
2019-03-29T05:24:10.935Z,98.95
2019-03-29T05:26:58.817Z,98.50
2019-03-29T05:29:27.392Z,98.52
2019-03-29T05:31:55.951Z,98.57
2019-03-29T05:34:24.615Z,98.66
2019-03-29T05:36:53.181Z,98.74
2019-03-29T05:39:22.585Z,98.66
2019-03-29T05:42:10.414Z,98.55
2019-03-29T05:44:40.813Z,98.81
2019-03-29T05:47:09.463Z,98.91
2019-03-29T05:49:57.344Z,98.98
2019-03-29T05:52:45.225Z,99.09
2019-03-29T05:55:13.864Z,99.08
2019-03-29T05:58:01.806Z,98.94
2019-03-29T06:00:49.710Z,98.62
2019-03-29T06:03:18.402Z,98.48
2019-03-29T06:05:46.979Z,98.34
2019-03-29T06:08:34.923Z,98.36
2019-03-29T06:11:03.574Z,98.03
2019-03-29T06:13:51.604Z,97.86
2019-03-29T06:16:39.602Z,97.73
2019-03-29T06:19:09.780Z,97.24
2019-03-29T06:21:38.471Z,96.57
2019-03-29T06:24:07.125Z,96.12
2019-03-29T06:26:55.100Z,96.08
2019-03-29T06:29:23.672Z,95.22
2019-03-29T06:32:32.141Z,93.97
2019-03-29T06:35:00.811Z,92.88
2019-03-29T06:38:09.266Z,92.48
2019-03-29T06:41:03.009Z,92.43
2019-03-29T06:43:46.545Z,92.47
2019-03-29T06:46:34.408Z,92.05
2019-03-29T06:49:03.067Z,91.40
2019-03-29T06:51:50.945Z,91.26
2019-03-29T06:54:38.783Z,90.17
2019-03-29T06:57:07.451Z,87.77
2019-03-29T06:59:36.058Z,81.12
2019-03-29T07:02:04.709Z,74.50
2019-03-29T07:04:52.589Z,69.98
2019-03-29T07:07:21.202Z,68.01
2019-03-29T07:09:49.714Z,66.87
2019-03-29T07:12:18.403Z,64.26
2019-03-29T07:15:06.173Z,63.29
2019-03-29T07:17:34.835Z,62.73
2019-03-29T07:22:58.709Z,62.15
2019-03-29T07:25:27.402Z,60.83
2019-03-29T07:28:15.335Z,59.71
2019-03-29T07:30:43.836Z,61.46
2019-03-29T07:33:12.537Z,61.77
2019-03-29T07:35:41.046Z,59.02
2019-03-29T07:38:09.704Z,58.23
2019-03-29T07:40:38.404Z,57.75
2019-03-29T07:43:07.062Z,57.04
2019-03-29T07:45:54.858Z,58.45
2019-03-29T07:48:23.432Z,56.82
2019-03-29T07:50:52.074Z,55.25
2019-03-29T07:53:39.967Z,56.08
2019-03-29T07:56:27.867Z,56.29
2019-03-29T08:01:50.716Z,55.51
2019-03-29T08:04:21.655Z,54.46
2019-03-29T08:06:49.791Z,54.66
2019-03-29T08:09:39.263Z,56.80
2019-03-29T08:12:07.842Z,53.05
2019-03-29T08:14:36.535Z,56.15
2019-03-29T08:17:05.177Z,55.93
2019-03-29T08:19:37.009Z,56.35
2019-03-29T08:22:04.266Z,56.29
2019-03-29T08:24:52.083Z,53.96
2019-03-29T08:29:55.028Z,56.07
2019-03-29T08:32:42.897Z,55.41
2019-03-29T08:35:11.586Z,55.92
2019-03-29T08:37:40.273Z,56.88
2019-03-29T08:43:03.551Z,58.74
2019-03-29T08:45:32.239Z,58.67
2019-03-29T08:48:20.012Z,58.77
2019-03-29T08:50:48.664Z,59.59
2019-03-29T08:53:17.308Z,59.36
2019-03-29T08:55:46.537Z,58.88
2019-03-29T08:58:35.547Z,60.00
2019-03-29T09:01:04.319Z,59.57
2019-03-29T09:03:32.965Z,60.53
2019-03-29T09:06:12.801Z,58.15
2019-03-29T09:11:38.788Z,57.06
2019-03-29T09:14:06.105Z,56.99
2019-03-29T09:16:34.795Z,57.25
2019-03-29T09:19:03.479Z,56.44
2019-03-29T09:21:51.315Z,57.96
2019-03-29T09:24:39.051Z,56.57
2019-03-29T09:27:07.745Z,57.63
2019-03-29T09:29:55.628Z,57.71
2019-03-29T09:32:24.298Z,56.20
2019-03-29T09:35:12.148Z,56.32
2019-03-29T09:37:40.795Z,54.73
2019-03-29T09:43:08.185Z,54.50
2019-03-29T09:45:34.690Z,53.25
2019-03-29T09:48:03.338Z,53.54
2019-03-29T09:50:32.090Z,52.05
2019-03-29T09:53:01.446Z,51.74
2019-03-29T09:55:53.252Z,50.11
2019-03-29T09:58:20.632Z,50.56
2019-03-29T10:01:29.183Z,52.06
2019-03-29T10:03:59.453Z,49.49
2019-03-29T10:06:28.149Z,49.21
2019-03-29T10:08:56.796Z,49.69
2019-03-29T10:11:25.440Z,48.00
2019-03-29T10:13:54.050Z,47.21
2019-03-29T10:16:25.800Z,47.43
2019-03-29T10:18:53.149Z,45.67
2019-03-29T10:21:21.789Z,46.92
2019-03-29T10:23:50.493Z,45.78
2019-03-29T10:26:19.131Z,44.01
2019-03-29T10:28:47.771Z,44.40
2019-03-29T10:31:35.529Z,43.75
2019-03-29T10:34:04.259Z,43.73
2019-03-29T10:36:52.130Z,41.96
2019-03-29T10:39:20.760Z,42.23
2019-03-29T10:41:49.451Z,43.37
2019-03-29T10:44:37.321Z,43.06
2019-03-29T10:47:05.891Z,40.81
2019-03-29T10:49:34.585Z,40.86
2019-03-29T10:52:22.342Z,42.06
2019-03-29T10:54:51.026Z,41.94
2019-03-29T10:57:19.667Z,42.45
2019-03-29T11:02:43.326Z,41.94
2019-03-29T11:05:11.966Z,42.92
2019-03-29T11:07:40.652Z,41.15
2019-03-29T11:10:49.222Z,41.03
2019-03-29T11:13:17.904Z,40.12
2019-03-29T11:15:46.590Z,41.19
2019-03-29T11:18:34.457Z,40.44
2019-03-29T11:21:03.108Z,40.89
2019-03-29T11:23:31.708Z,41.46
2019-03-29T11:26:19.600Z,40.38
2019-03-29T11:28:48.287Z,40.23
2019-03-29T11:34:04.556Z,38.19
2019-03-29T11:36:53.041Z,38.18
2019-03-29T11:39:41.914Z,36.41
2019-03-29T11:42:29.720Z,36.69
2019-03-29T11:45:17.590Z,39.35
2019-03-29T11:48:08.804Z,38.85
2019-03-29T11:50:35.839Z,40.00
2019-03-29T11:53:44.252Z,39.27
2019-03-29T11:58:47.527Z,38.10
2019-03-29T12:01:35.477Z,38.52
2019-03-29T12:04:04.219Z,39.13
2019-03-29T12:06:52.169Z,36.93
2019-03-29T12:09:40.000Z,37.60
2019-03-29T12:12:27.879Z,37.78
2019-03-29T12:15:15.738Z,38.40
2019-03-29T12:18:03.620Z,36.62
2019-03-29T12:20:54.246Z,38.24
2019-03-29T12:23:21.801Z,37.27
2019-03-29T12:25:50.371Z,37.82
2019-03-29T12:28:38.311Z,36.30
2019-03-29T12:31:46.725Z,36.98
2019-03-29T12:34:34.663Z,36.90
2019-03-29T12:37:03.301Z,37.06
2019-03-29T12:39:51.126Z,38.23
2019-03-29T12:42:38.947Z,36.09
2019-03-29T12:45:47.427Z,38.14
2019-03-29T12:48:16.007Z,37.32
2019-03-29T12:50:44.690Z,35.56
2019-03-29T12:53:13.334Z,37.10
2019-03-29T12:56:01.223Z,34.54
2019-03-29T12:58:29.882Z,34.34
2019-03-29T13:01:17.817Z,35.68
2019-03-29T13:04:05.648Z,36.20
2019-03-29T13:07:24.876Z,35.84
2019-03-29T13:09:52.168Z,35.55
2019-03-29T13:12:40.081Z,36.79
2019-03-29T13:15:48.579Z,35.44
2019-03-29T13:18:17.437Z,35.32
2019-03-29T13:21:05.302Z,34.26
2019-03-29T13:23:33.909Z,35.67
2019-03-29T13:26:21.738Z,36.23
2019-03-29T13:28:50.429Z,35.91
2019-03-29T13:31:19.046Z,34.36
2019-03-29T13:33:47.652Z,34.48
2019-03-29T13:36:16.309Z,34.70
2019-03-29T13:38:44.922Z,34.62
2019-03-29T13:41:32.759Z,34.23
2019-03-29T13:44:24.116Z,34.75
2019-03-29T13:46:51.007Z,33.92
2019-03-29T13:49:38.741Z,34.46
2019-03-29T13:52:26.600Z,34.72
2019-03-29T13:55:14.428Z,34.97
2019-03-29T13:58:02.299Z,36.54
2019-03-29T14:00:50.179Z,35.31
2019-03-29T14:03:18.858Z,34.69
2019-03-29T14:05:47.497Z,34.97
2019-03-29T14:08:16.189Z,34.17
2019-03-29T14:10:44.849Z,34.65
2019-03-29T14:13:13.546Z,35.03
2019-03-29T14:15:42.137Z,33.60
2019-03-29T14:18:30.001Z,32.95
2019-03-29T14:21:17.895Z,34.04
2019-03-29T14:26:55.470Z,34.36
2019-03-29T14:29:43.330Z,37.06
2019-03-29T14:32:11.965Z,37.31
2019-03-29T14:34:40.537Z,35.95
2019-03-29T14:37:09.093Z,34.91
2019-03-29T14:39:56.969Z,33.76
2019-03-29T14:42:44.856Z,35.47
2019-03-29T14:45:13.555Z,34.32
2019-03-29T14:47:43.819Z,34.11
2019-03-29T14:50:52.398Z,36.10
2019-03-29T14:53:21.030Z,35.83
2019-03-29T14:55:49.682Z,35.76
2019-03-29T14:58:37.565Z,34.94
2019-03-29T15:01:06.141Z,35.43
2019-03-29T15:03:34.792Z,36.15
2019-03-29T15:06:22.670Z,36.25
2019-03-29T15:11:31.524Z,36.15
2019-03-29T15:14:19.388Z,36.03
2019-03-29T15:17:07.099Z,36.38
2019-03-29T15:19:54.843Z,36.05
2019-03-29T15:22:42.707Z,35.75
2019-03-29T15:25:30.592Z,34.68
2019-03-29T15:28:18.326Z,34.75
2019-03-29T15:31:06.214Z,33.61
2019-03-29T15:33:55.652Z,34.12
2019-03-29T15:36:24.484Z,34.35
2019-03-29T15:39:12.331Z,34.36
2019-03-29T15:42:00.074Z,35.03
2019-03-29T15:44:47.934Z,35.68
2019-03-29T15:47:16.508Z,35.82
2019-03-29T15:50:04.383Z,34.60
2019-03-29T15:52:52.100Z,35.60
2019-03-29T15:55:20.794Z,35.89
2019-03-29T15:58:08.619Z,35.72
2019-03-29T16:00:37.265Z,35.88
2019-03-29T16:03:25.136Z,35.31
2019-03-29T16:06:12.976Z,35.34
2019-03-29T16:09:00.795Z,36.55
2019-03-29T16:11:48.622Z,37.20
2019-03-29T16:14:36.508Z,37.51
2019-03-29T16:17:44.925Z,37.29
2019-03-29T16:20:13.605Z,36.58
2019-03-29T16:23:01.344Z,37.39
2019-03-29T16:25:29.987Z,37.95
2019-03-29T16:27:58.733Z,37.52
2019-03-29T16:30:27.387Z,36.50
2019-03-29T16:33:15.266Z,36.64
2019-03-29T16:36:03.209Z,37.37
2019-03-29T16:38:51.039Z,38.22
2019-03-29T16:41:38.836Z,38.14
2019-03-29T16:44:07.485Z,39.12
2019-03-29T16:46:55.271Z,39.11
2019-03-29T16:49:43.113Z,39.91
2019-03-29T16:52:30.990Z,40.16
2019-03-29T16:55:18.860Z,40.20
2019-03-29T16:58:06.705Z,40.88
2019-03-29T17:00:35.396Z,41.34
2019-03-29T17:03:23.230Z,40.56
2019-03-29T17:06:11.119Z,40.87
2019-03-29T17:08:59.015Z,41.23
2019-03-29T17:11:46.889Z,41.76
2019-03-29T17:14:34.809Z,42.58
2019-03-29T17:17:22.747Z,42.49
2019-03-29T17:20:10.692Z,43.46
2019-03-29T17:22:58.561Z,44.14
2019-03-29T17:28:42.556Z,44.17
2019-03-29T17:31:30.381Z,45.22
2019-03-29T17:33:59.086Z,44.94
2019-03-29T17:36:46.864Z,45.78
2019-03-29T17:39:34.773Z,46.17
2019-03-29T17:42:22.596Z,46.87
2019-03-29T17:44:51.291Z,46.87
2019-03-29T17:47:39.145Z,47.32
2019-03-29T17:50:47.627Z,47.30
2019-03-29T17:53:16.327Z,47.74
2019-03-29T17:55:44.926Z,49.05
2019-03-29T17:58:13.618Z,49.68
2019-03-29T18:01:01.525Z,50.86
2019-03-29T18:03:30.229Z,51.27
2019-03-29T18:06:18.051Z,51.83
2019-03-29T18:08:46.749Z,52.10
2019-03-29T18:11:34.576Z,52.61
2019-03-29T18:14:22.399Z,53.99
2019-03-29T18:17:10.232Z,53.01
2019-03-29T18:19:58.182Z,52.43
2019-03-29T18:22:26.825Z,53.15
2019-03-29T18:24:55.416Z,53.77
2019-03-29T18:27:24.050Z,53.58
2019-03-29T18:29:52.703Z,53.34
2019-03-29T18:32:40.578Z,53.29
2019-03-29T18:35:49.002Z,52.45
2019-03-29T18:38:17.689Z,52.66
2019-03-29T18:41:05.523Z,55.57
2019-03-29T18:43:34.208Z,55.96
2019-03-29T18:46:22.104Z,57.41
2019-03-29T18:49:09.974Z,56.51
2019-03-29T18:51:38.597Z,57.93
2019-03-29T18:54:26.531Z,58.69
2019-03-29T18:57:14.340Z,60.06
2019-03-29T19:00:02.213Z,60.00
2019-03-29T19:02:30.902Z,60.05
2019-03-29T19:04:59.558Z,60.03
2019-03-29T19:08:08.012Z,60.41
2019-03-29T19:10:36.653Z,60.97
2019-03-29T19:13:24.480Z,60.63
2019-03-29T19:15:53.172Z,60.47
2019-03-29T19:18:21.800Z,62.01
2019-03-29T19:21:09.600Z,62.41
2019-03-29T19:23:38.285Z,61.89
2019-03-29T19:26:06.942Z,63.19
2019-03-29T19:28:35.561Z,62.91
2019-03-29T19:31:04.253Z,62.89
2019-03-29T19:33:52.053Z,61.73
2019-03-29T19:36:39.878Z,62.56
2019-03-29T19:39:08.666Z,63.03
2019-03-29T19:41:37.312Z,62.05
2019-03-29T19:44:06.056Z,61.81
2019-03-29T19:46:34.630Z,62.12
2019-03-29T19:49:03.285Z,61.71
2019-03-29T19:51:38.809Z,62.00
2019-03-29T19:54:26.656Z,61.22
2019-03-29T19:56:55.338Z,62.01
2019-03-29T19:59:23.999Z,62.56
2019-03-29T20:01:52.647Z,63.75
2019-03-29T20:05:01.068Z,64.29
2019-03-29T20:07:29.754Z,65.26
2019-03-29T20:09:58.405Z,63.59
2019-03-29T20:12:27.088Z,63.78
2019-03-29T20:15:14.903Z,64.13
2019-03-29T20:17:43.472Z,64.79
2019-03-29T20:20:51.953Z,64.66
2019-03-29T20:23:39.811Z,64.20
2019-03-29T20:26:27.698Z,64.57
2019-03-29T20:28:56.378Z,65.44
2019-03-29T20:31:24.986Z,66.75
2019-03-29T20:34:12.738Z,67.69
2019-03-29T20:36:41.347Z,66.29
2019-03-29T20:39:10.037Z,67.79
2019-03-29T20:41:38.640Z,67.86
2019-03-29T20:44:07.286Z,66.52
2019-03-29T20:46:35.899Z,66.23
2019-03-29T20:49:04.543Z,67.92
2019-03-29T20:52:13.008Z,69.25
2019-03-29T20:54:41.697Z,68.23
2019-03-29T20:57:29.635Z,69.79
2019-03-29T20:59:58.298Z,69.27
2019-03-29T21:02:26.922Z,70.49
2019-03-29T21:04:55.571Z,71.36
2019-03-29T21:07:24.256Z,71.41
2019-03-29T21:10:12.244Z,71.75
2019-03-29T21:12:40.934Z,71.73
2019-03-29T21:15:49.398Z,70.44
2019-03-29T21:18:18.090Z,70.23
2019-03-29T21:21:05.869Z,70.20
2019-03-29T21:23:34.562Z,69.96
2019-03-29T21:26:03.254Z,70.76
2019-03-29T21:28:34.924Z,70.55
2019-03-29T21:31:02.234Z,71.54
2019-03-29T21:33:50.070Z,71.74
2019-03-29T21:36:18.771Z,72.06
2019-03-29T21:38:47.456Z,71.73
2019-03-29T21:41:16.102Z,71.77
2019-03-29T21:43:44.796Z,72.85
2019-03-29T21:46:13.374Z,73.67
2019-03-29T21:49:01.321Z,73.99
2019-03-29T21:51:30.005Z,74.37
2019-03-29T21:53:58.577Z,74.38
2019-03-29T21:56:27.226Z,73.08
2019-03-29T21:58:55.854Z,72.72
2019-03-29T22:01:24.537Z,73.55
2019-03-29T22:03:53.221Z,74.48
2019-03-29T22:06:21.872Z,73.10
2019-03-29T22:08:50.488Z,73.69
2019-03-29T22:11:19.110Z,74.44
2019-03-29T22:13:47.809Z,74.87
2019-03-29T22:16:16.472Z,75.17
2019-03-29T22:18:45.177Z,75.11
2019-03-29T22:21:13.786Z,74.35
2019-03-29T22:23:42.426Z,74.75
2019-03-29T22:26:11.129Z,75.42
2019-03-29T22:28:39.739Z,75.26
2019-03-29T22:31:08.363Z,74.98
2019-03-29T22:36:54.859Z,74.38
2019-03-29T22:39:42.739Z,74.51
2019-03-29T22:42:11.326Z,74.87
2019-03-29T22:44:39.938Z,75.44
2019-03-29T22:47:08.618Z,75.71
2019-03-29T22:49:37.301Z,75.83
2019-03-29T22:52:05.922Z,75.38
2019-03-29T22:54:34.571Z,75.88
2019-03-29T22:57:03.277Z,75.00
2019-03-29T22:59:51.231Z,74.72
2019-03-29T23:02:59.670Z,76.10
2019-03-29T23:05:28.372Z,76.78
2019-03-29T23:07:57.026Z,77.19
2019-03-29T23:10:25.532Z,76.42
2019-03-29T23:13:13.416Z,75.65
2019-03-29T23:16:01.284Z,76.48
2019-03-29T23:18:29.938Z,76.83
2019-03-29T23:20:58.608Z,77.36
2019-03-29T23:23:27.113Z,75.78
2019-03-29T23:26:14.933Z,75.62
2019-03-29T23:29:02.933Z,75.44
2019-03-29T23:31:31.540Z,75.17
2019-03-29T23:34:00.156Z,75.11
2019-03-29T23:36:47.986Z,74.97
2019-03-29T23:39:56.597Z,74.70
2019-03-29T23:42:25.566Z,75.69
2019-03-29T23:45:13.401Z,76.40
2019-03-29T23:48:01.309Z,77.20
2019-03-29T23:50:29.912Z,78.42
2019-03-29T23:52:58.571Z,79.11
2019-03-29T23:55:27.258Z,78.58
2019-03-29T23:57:55.943Z,78.97
